Terminal Aerodrome Forecast
Issued by NWS La Crosse, WI

Home | Current Version | Previous Version | Text Only | Print | Product List | Glossary On
Versions: 1 2 3 4 5 6 7 8 9 10 11 12 13 14 15 16 17 18 19 20 21 22 23
000
FTUS43 KARX 231120
TAFLSE
TAF
KLSE 231120Z 2312/2412 20004KT P6SM FEW250
     FM231500 26007KT P6SM FEW250
     FM240000 19005KT P6SM SCT200
     FM240800 13005KT P6SM SCT250=

USA.gov is the U.S. government's official web portal to all federal, state and local government web resources and services.